sensor_id;sensor_type;location;lat;lon;timestamp;P1;durP1;ratioP1;P2;durP2;ratioP2
62123;SDS011;48110;47.532;19.078;2024-01-15T00:01:06;69.53;;;45.45;;
62123;SDS011;48110;47.532;19.078;2024-01-15T00:04:10;70.47;;;44.22;;
62123;SDS011;48110;47.532;19.078;2024-01-15T00:07:14;65.75;;;44.40;;
62123;SDS011;48110;47.532;19.078;2024-01-15T00:10:17;65.15;;;44.05;;
62123;SDS011;48110;47.532;19.078;2024-01-15T00:13:21;65.65;;;43.58;;
62123;SDS011;48110;47.532;19.078;2024-01-15T00:16:23;63.60;;;42.62;;
62123;SDS011;48110;47.532;19.078;2024-01-15T00:19:29;63.25;;;42.20;;
62123;SDS011;48110;47.532;19.078;2024-01-15T00:22:35;67.07;;;43.10;;
62123;SDS011;48110;47.532;19.078;2024-01-15T00:25:38;63.25;;;42.33;;
62123;SDS011;48110;47.532;19.078;2024-01-15T00:28:41;65.70;;;42.95;;
62123;SDS011;48110;47.532;19.078;2024-01-15T00:31:44;72.37;;;44.95;;
62123;SDS011;48110;47.532;19.078;2024-01-15T00:34:47;64.80;;;44.00;;
62123;SDS011;48110;47.532;19.078;2024-01-15T00:37:50;62.33;;;43.10;;
62123;SDS011;48110;47.532;19.078;2024-01-15T00:40:53;66.03;;;43.70;;
62123;SDS011;48110;47.532;19.078;2024-01-15T00:43:56;62.47;;;42.03;;
62123;SDS011;48110;47.532;19.078;2024-01-15T00:46:59;67.00;;;42.65;;
62123;SDS011;48110;47.532;19.078;2024-01-15T00:50:02;62.28;;;42.22;;
62123;SDS011;48110;47.532;19.078;2024-01-15T00:53:05;63.85;;;41.75;;
62123;SDS011;48110;47.532;19.078;2024-01-15T00:56:08;64.07;;;41.85;;
62123;SDS011;48110;47.532;19.078;2024-01-15T00:59:11;60.85;;;40.47;;
62123;SDS011;48110;47.532;19.078;2024-01-15T01:02:17;63.70;;;41.67;;
62123;SDS011;48110;47.532;19.078;2024-01-15T01:05:20;58.10;;;40.17;;
62123;SDS011;48110;47.532;19.078;2024-01-15T01:08:23;64.40;;;42.72;;
62123;SDS011;48110;47.532;19.078;2024-01-15T01:11:26;64.95;;;42.47;;
62123;SDS011;48110;47.532;19.078;2024-01-15T01:14:29;62.97;;;41.88;;
62123;SDS011;48110;47.532;19.078;2024-01-15T01:17:32;67.82;;;43.63;;
62123;SDS011;48110;47.532;19.078;2024-01-15T01:20:35;60.83;;;41.53;;
62123;SDS011;48110;47.532;19.078;2024-01-15T01:23:38;61.97;;;41.53;;
62123;SDS011;48110;47.532;19.078;2024-01-15T01:26:41;63.28;;;42.00;;
62123;SDS011;48110;47.532;19.078;2024-01-15T01:29:44;65.00;;;44.22;;
62123;SDS011;48110;47.532;19.078;2024-01-15T01:32:47;65.65;;;43.67;;
62123;SDS011;48110;47.532;19.078;2024-01-15T01:35:50;62.22;;;43.72;;
62123;SDS011;48110;47.532;19.078;2024-01-15T01:38:53;64.12;;;43.63;;
62123;SDS011;48110;47.532;19.078;2024-01-15T01:41:56;63.53;;;44.05;;
62123;SDS011;48110;47.532;19.078;2024-01-15T01:44:59;65.12;;;43.80;;
62123;SDS011;48110;47.532;19.078;2024-01-15T01:48:02;65.45;;;45.12;;
62123;SDS011;48110;47.532;19.078;2024-01-15T01:51:07;66.53;;;45.92;;
62123;SDS011;48110;47.532;19.078;2024-01-15T01:54:10;67.53;;;45.88;;
62123;SDS011;48110;47.532;19.078;2024-01-15T01:57:16;66.82;;;45.53;;
62123;SDS011;48110;47.532;19.078;2024-01-15T02:00:21;72.03;;;47.88;;
62123;SDS011;48110;47.532;19.078;2024-01-15T02:03:29;69.57;;;45.95;;
62123;SDS011;48110;47.532;19.078;2024-01-15T02:06:33;66.65;;;46.22;;
62123;SDS011;48110;47.532;19.078;2024-01-15T02:09:36;68.95;;;47.28;;
62123;SDS011;48110;47.532;19.078;2024-01-15T02:12:39;68.32;;;47.22;;
62123;SDS011;48110;47.532;19.078;2024-01-15T02:15:42;65.72;;;45.75;;
62123;SDS011;48110;47.532;19.078;2024-01-15T02:18:46;69.95;;;47.33;;
62123;SDS011;48110;47.532;19.078;2024-01-15T02:21:49;69.75;;;48.58;;
62123;SDS011;48110;47.532;19.078;2024-01-15T02:24:52;69.03;;;47.38;;
62123;SDS011;48110;47.532;19.078;2024-01-15T02:27:56;69.00;;;48.22;;
62123;SDS011;48110;47.532;19.078;2024-01-15T02:30:59;70.57;;;48.90;;
62123;SDS011;48110;47.532;19.078;2024-01-15T02:34:02;68.47;;;47.50;;
62123;SDS011;48110;47.532;19.078;2024-01-15T02:37:05;69.37;;;48.40;;
62123;SDS011;48110;47.532;19.078;2024-01-15T02:40:08;72.25;;;50.10;;
62123;SDS011;48110;47.532;19.078;2024-01-15T02:43:11;71.55;;;49.83;;
62123;SDS011;48110;47.532;19.078;2024-01-15T02:46:14;71.43;;;48.92;;
62123;SDS011;48110;47.532;19.078;2024-01-15T02:49:18;69.43;;;48.70;;
62123;SDS011;48110;47.532;19.078;2024-01-15T02:52:21;68.45;;;47.78;;
62123;SDS011;48110;47.532;19.078;2024-01-15T02:55:24;68.15;;;49.25;;
62123;SDS011;48110;47.532;19.078;2024-01-15T02:58:27;74.50;;;50.97;;
62123;SDS011;48110;47.532;19.078;2024-01-15T03:01:30;71.87;;;50.42;;
62123;SDS011;48110;47.532;19.078;2024-01-15T03:04:33;24.25;;;11.73;;
62123;SDS011;48110;47.532;19.078;2024-01-15T03:07:36;74.20;;;51.63;;
62123;SDS011;48110;47.532;19.078;2024-01-15T03:10:39;71.93;;;50.25;;
62123;SDS011;48110;47.532;19.078;2024-01-15T03:13:42;76.47;;;51.50;;
62123;SDS011;48110;47.532;19.078;2024-01-15T03:16:45;72.62;;;49.67;;
62123;SDS011;48110;47.532;19.078;2024-01-15T03:19:48;73.22;;;50.22;;
62123;SDS011;48110;47.532;19.078;2024-01-15T03:22:52;78.70;;;52.83;;
62123;SDS011;48110;47.532;19.078;2024-01-15T03:25:56;75.50;;;51.20;;
62123;SDS011;48110;47.532;19.078;2024-01-15T03:28:59;74.43;;;52.20;;
62123;SDS011;48110;47.532;19.078;2024-01-15T03:32:02;23.33;;;11.85;;
62123;SDS011;48110;47.532;19.078;2024-01-15T03:35:05;77.70;;;52.72;;
62123;SDS011;48110;47.532;19.078;2024-01-15T03:38:09;78.40;;;53.50;;
62123;SDS011;48110;47.532;19.078;2024-01-15T03:41:12;75.62;;;53.33;;
62123;SDS011;48110;47.532;19.078;2024-01-15T03:44:15;79.68;;;53.25;;
62123;SDS011;48110;47.532;19.078;2024-01-15T03:47:18;77.78;;;53.45;;
62123;SDS011;48110;47.532;19.078;2024-01-15T03:50:21;75.25;;;51.95;;
62123;SDS011;48110;47.532;19.078;2024-01-15T03:53:23;75.18;;;52.13;;
62123;SDS011;48110;47.532;19.078;2024-01-15T03:56:26;78.90;;;52.88;;
62123;SDS011;48110;47.532;19.078;2024-01-15T03:59:29;79.18;;;52.90;;
62123;SDS011;48110;47.532;19.078;2024-01-15T04:02:32;83.10;;;56.40;;
62123;SDS011;48110;47.532;19.078;2024-01-15T04:05:35;81.85;;;54.78;;
62123;SDS011;48110;47.532;19.078;2024-01-15T04:08:38;77.78;;;52.70;;
62123;SDS011;48110;47.532;19.078;2024-01-15T04:11:41;21.25;;;11.27;;
62123;SDS011;48110;47.532;19.078;2024-01-15T04:14:44;80.95;;;54.45;;
62123;SDS011;48110;47.532;19.078;2024-01-15T04:17:47;80.28;;;54.17;;
62123;SDS011;48110;47.532;19.078;2024-01-15T04:20:50;21.85;;;11.57;;
62123;SDS011;48110;47.532;19.078;2024-01-15T04:23:53;79.78;;;53.75;;
62123;SDS011;48110;47.532;19.078;2024-01-15T04:26:55;80.72;;;53.17;;
62123;SDS011;48110;47.532;19.078;2024-01-15T04:29:59;22.00;;;10.52;;
62123;SDS011;48110;47.532;19.078;2024-01-15T04:33:03;85.38;;;56.70;;
62123;SDS011;48110;47.532;19.078;2024-01-15T04:36:07;83.25;;;55.58;;
62123;SDS011;48110;47.532;19.078;2024-01-15T04:39:11;15.90;;;9.15;;
62123;SDS011;48110;47.532;19.078;2024-01-15T04:42:14;81.28;;;53.65;;
62123;SDS011;48110;47.532;19.078;2024-01-15T04:45:17;82.65;;;56.47;;
62123;SDS011;48110;47.532;19.078;2024-01-15T04:48:21;82.10;;;55.40;;
62123;SDS011;48110;47.532;19.078;2024-01-15T04:51:25;18.42;;;9.82;;
62123;SDS011;48110;47.532;19.078;2024-01-15T04:54:28;86.28;;;56.85;;
62123;SDS011;48110;47.532;19.078;2024-01-15T04:57:31;82.35;;;57.35;;
62123;SDS011;48110;47.532;19.078;2024-01-15T05:00:34;24.48;;;10.63;;
62123;SDS011;48110;47.532;19.078;2024-01-15T05:03:37;83.35;;;56.88;;
62123;SDS011;48110;47.532;19.078;2024-01-15T05:06:41;87.60;;;58.85;;
62123;SDS011;48110;47.532;19.078;2024-01-15T05:09:45;21.77;;;11.45;;
62123;SDS011;48110;47.532;19.078;2024-01-15T05:12:49;83.78;;;57.03;;
62123;SDS011;48110;47.532;19.078;2024-01-15T05:15:52;21.10;;;8.90;;
62123;SDS011;48110;47.532;19.078;2024-01-15T05:18:56;90.55;;;59.58;;
62123;SDS011;48110;47.532;19.078;2024-01-15T05:21:59;90.95;;;58.63;;
62123;SDS011;48110;47.532;19.078;2024-01-15T05:25:05;29.37;;;9.88;;
62123;SDS011;48110;47.532;19.078;2024-01-15T05:28:10;93.50;;;60.15;;
62123;SDS011;48110;47.532;19.078;2024-01-15T05:31:15;20.73;;;9.57;;
62123;SDS011;48110;47.532;19.078;2024-01-15T05:34:20;93.85;;;59.72;;
62123;SDS011;48110;47.532;19.078;2024-01-15T05:37:26;90.57;;;60.33;;
62123;SDS011;48110;47.532;19.078;2024-01-15T05:40:29;27.27;;;11.45;;
62123;SDS011;48110;47.532;19.078;2024-01-15T05:43:32;92.07;;;57.85;;
62123;SDS011;48110;47.532;19.078;2024-01-15T05:46:34;90.20;;;58.53;;
62123;SDS011;48110;47.532;19.078;2024-01-15T05:49:37;90.97;;;56.53;;
62123;SDS011;48110;47.532;19.078;2024-01-15T05:52:41;89.50;;;59.85;;
62123;SDS011;48110;47.532;19.078;2024-01-15T05:55:44;23.23;;;11.65;;
62123;SDS011;48110;47.532;19.078;2024-01-15T05:58:47;96.80;;;62.65;;
62123;SDS011;48110;47.532;19.078;2024-01-15T06:01:49;95.95;;;61.63;;
62123;SDS011;48110;47.532;19.078;2024-01-15T06:04:53;30.05;;;12.02;;
62123;SDS011;48110;47.532;19.078;2024-01-15T06:07:58;96.32;;;64.68;;
62123;SDS011;48110;47.532;19.078;2024-01-15T06:11:01;94.97;;;62.83;;
62123;SDS011;48110;47.532;19.078;2024-01-15T06:14:06;94.15;;;61.67;;
62123;SDS011;48110;47.532;19.078;2024-01-15T06:17:09;89.25;;;63.17;;
62123;SDS011;48110;47.532;19.078;2024-01-15T06:20:12;92.07;;;60.22;;
62123;SDS011;48110;47.532;19.078;2024-01-15T06:23:15;92.45;;;62.17;;
62123;SDS011;48110;47.532;19.078;2024-01-15T06:26:22;27.55;;;11.75;;
62123;SDS011;48110;47.532;19.078;2024-01-15T06:29:26;89.13;;;60.90;;
62123;SDS011;48110;47.532;19.078;2024-01-15T06:32:32;94.37;;;60.90;;
62123;SDS011;48110;47.532;19.078;2024-01-15T06:35:35;89.40;;;61.97;;
62123;SDS011;48110;47.532;19.078;2024-01-15T06:38:38;98.35;;;66.60;;
62123;SDS011;48110;47.532;19.078;2024-01-15T06:41:41;33.30;;;13.30;;
62123;SDS011;48110;47.532;19.078;2024-01-15T06:44:48;90.30;;;61.92;;
62123;SDS011;48110;47.532;19.078;2024-01-15T06:47:51;92.93;;;60.38;;
62123;SDS011;48110;47.532;19.078;2024-01-15T06:50:54;88.65;;;61.30;;
62123;SDS011;48110;47.532;19.078;2024-01-15T06:53:59;87.32;;;59.63;;
62123;SDS011;48110;47.532;19.078;2024-01-15T06:57:02;87.60;;;57.72;;
62123;SDS011;48110;47.532;19.078;2024-01-15T07:00:05;87.60;;;58.33;;
62123;SDS011;48110;47.532;19.078;2024-01-15T07:03:10;81.75;;;54.83;;
62123;SDS011;48110;47.532;19.078;2024-01-15T07:06:14;82.37;;;56.22;;
62123;SDS011;48110;47.532;19.078;2024-01-15T07:09:19;79.25;;;54.47;;
62123;SDS011;48110;47.532;19.078;2024-01-15T07:12:23;77.47;;;53.00;;
62123;SDS011;48110;47.532;19.078;2024-01-15T07:15:26;77.85;;;53.75;;
62123;SDS011;48110;47.532;19.078;2024-01-15T07:18:29;79.60;;;53.45;;
62123;SDS011;48110;47.532;19.078;2024-01-15T07:21:32;88.47;;;59.17;;
62123;SDS011;48110;47.532;19.078;2024-01-15T07:24:36;88.45;;;59.63;;
62123;SDS011;48110;47.532;19.078;2024-01-15T07:27:38;92.43;;;60.63;;
62123;SDS011;48110;47.532;19.078;2024-01-15T07:30:42;93.25;;;62.70;;
62123;SDS011;48110;47.532;19.078;2024-01-15T07:33:45;92.00;;;62.55;;
62123;SDS011;48110;47.532;19.078;2024-01-15T07:36:49;92.60;;;64.30;;
62123;SDS011;48110;47.532;19.078;2024-01-15T07:39:52;95.20;;;62.50;;
62123;SDS011;48110;47.532;19.078;2024-01-15T07:42:56;88.22;;;60.15;;
62123;SDS011;48110;47.532;19.078;2024-01-15T07:45:59;93.43;;;61.88;;
62123;SDS011;48110;47.532;19.078;2024-01-15T07:49:02;34.28;;;14.80;;
62123;SDS011;48110;47.532;19.078;2024-01-15T07:52:06;92.25;;;58.97;;
62123;SDS011;48110;47.532;19.078;2024-01-15T07:55:10;88.97;;;59.95;;
62123;SDS011;48110;47.532;19.078;2024-01-15T07:58:13;92.00;;;59.88;;
62123;SDS011;48110;47.532;19.078;2024-01-15T08:01:18;89.13;;;60.08;;
62123;SDS011;48110;47.532;19.078;2024-01-15T08:04:24;82.35;;;56.22;;
62123;SDS011;48110;47.532;19.078;2024-01-15T08:07:27;82.25;;;53.87;;
62123;SDS011;48110;47.532;19.078;2024-01-15T08:10:30;76.20;;;49.47;;
62123;SDS011;48110;47.532;19.078;2024-01-15T08:13:33;72.97;;;49.45;;
62123;SDS011;48110;47.532;19.078;2024-01-15T08:16:36;63.50;;;41.13;;
62123;SDS011;48110;47.532;19.078;2024-01-15T08:19:40;51.00;;;33.95;;
62123;SDS011;48110;47.532;19.078;2024-01-15T08:22:44;74.55;;;44.97;;
62123;SDS011;48110;47.532;19.078;2024-01-15T08:25:47;50.92;;;32.15;;
62123;SDS011;48110;47.532;19.078;2024-01-15T08:28:50;45.17;;;28.70;;
62123;SDS011;48110;47.532;19.078;2024-01-15T08:31:52;48.25;;;31.73;;
62123;SDS011;48110;47.532;19.078;2024-01-15T08:34:55;41.83;;;27.42;;
62123;SDS011;48110;47.532;19.078;2024-01-15T08:37:58;37.58;;;25.92;;
62123;SDS011;48110;47.532;19.078;2024-01-15T08:41:01;38.95;;;24.70;;
62123;SDS011;48110;47.532;19.078;2024-01-15T08:44:04;34.47;;;24.05;;
62123;SDS011;48110;47.532;19.078;2024-01-15T08:47:07;36.25;;;23.25;;
62123;SDS011;48110;47.532;19.078;2024-01-15T08:50:10;36.90;;;23.17;;
62123;SDS011;48110;47.532;19.078;2024-01-15T08:53:13;48.87;;;22.55;;
62123;SDS011;48110;47.532;19.078;2024-01-15T08:56:17;33.95;;;23.50;;
62123;SDS011;48110;47.532;19.078;2024-01-15T08:59:20;36.95;;;22.77;;
62123;SDS011;48110;47.532;19.078;2024-01-15T09:02:27;35.78;;;22.02;;
62123;SDS011;48110;47.532;19.078;2024-01-15T09:05:30;33.70;;;22.20;;
62123;SDS011;48110;47.532;19.078;2024-01-15T09:08:33;32.15;;;22.10;;
62123;SDS011;48110;47.532;19.078;2024-01-15T09:11:36;40.08;;;22.00;;
62123;SDS011;48110;47.532;19.078;2024-01-15T09:14:38;29.90;;;19.98;;
62123;SDS011;48110;47.532;19.078;2024-01-15T09:17:42;28.60;;;20.27;;
62123;SDS011;48110;47.532;19.078;2024-01-15T09:20:45;29.50;;;20.08;;
62123;SDS011;48110;47.532;19.078;2024-01-15T09:23:48;36.85;;;21.00;;
62123;SDS011;48110;47.532;19.078;2024-01-15T09:26:51;29.08;;;18.25;;
62123;SDS011;48110;47.532;19.078;2024-01-15T09:29:54;26.60;;;18.17;;
62123;SDS011;48110;47.532;19.078;2024-01-15T09:32:57;26.37;;;17.25;;
62123;SDS011;48110;47.532;19.078;2024-01-15T09:36:01;27.75;;;18.23;;
62123;SDS011;48110;47.532;19.078;2024-01-15T09:39:06;26.60;;;16.80;;
62123;SDS011;48110;47.532;19.078;2024-01-15T09:42:11;25.90;;;17.45;;
62123;SDS011;48110;47.532;19.078;2024-01-15T09:45:14;29.05;;;16.98;;
62123;SDS011;48110;47.532;19.078;2024-01-15T09:48:18;27.20;;;16.25;;
62123;SDS011;48110;47.532;19.078;2024-01-15T09:51:21;24.50;;;14.15;;
62123;SDS011;48110;47.532;19.078;2024-01-15T09:54:25;25.85;;;14.50;;
62123;SDS011;48110;47.532;19.078;2024-01-15T09:57:28;21.70;;;13.35;;
62123;SDS011;48110;47.532;19.078;2024-01-15T10:00:31;22.70;;;13.43;;
62123;SDS011;48110;47.532;19.078;2024-01-15T10:03:36;21.23;;;13.70;;
62123;SDS011;48110;47.532;19.078;2024-01-15T10:06:44;21.42;;;12.48;;
62123;SDS011;48110;47.532;19.078;2024-01-15T10:09:48;28.45;;;12.65;;
62123;SDS011;48110;47.532;19.078;2024-01-15T10:12:51;24.15;;;12.27;;
62123;SDS011;48110;47.532;19.078;2024-01-15T10:15:57;19.90;;;12.80;;
62123;SDS011;48110;47.532;19.078;2024-01-15T10:19:01;21.90;;;12.77;;
62123;SDS011;48110;47.532;19.078;2024-01-15T10:22:05;21.37;;;11.85;;
62123;SDS011;48110;47.532;19.078;2024-01-15T10:25:12;17.77;;;10.90;;
62123;SDS011;48110;47.532;19.078;2024-01-15T10:28:16;18.37;;;10.88;;
62123;SDS011;48110;47.532;19.078;2024-01-15T10:31:21;20.02;;;10.88;;
62123;SDS011;48110;47.532;19.078;2024-01-15T10:34:30;17.00;;;10.75;;
62123;SDS011;48110;47.532;19.078;2024-01-15T10:37:33;17.65;;;10.13;;
62123;SDS011;48110;47.532;19.078;2024-01-15T10:40:36;21.30;;;11.48;;
62123;SDS011;48110;47.532;19.078;2024-01-15T10:43:39;17.52;;;10.18;;
62123;SDS011;48110;47.532;19.078;2024-01-15T10:46:45;19.12;;;9.57;;
62123;SDS011;48110;47.532;19.078;2024-01-15T10:49:51;16.55;;;10.27;;
62123;SDS011;48110;47.532;19.078;2024-01-15T10:52:56;15.48;;;10.32;;
62123;SDS011;48110;47.532;19.078;2024-01-15T10:55:59;18.65;;;10.13;;
62123;SDS011;48110;47.532;19.078;2024-01-15T10:59:04;15.60;;;8.98;;
62123;SDS011;48110;47.532;19.078;2024-01-15T11:02:11;16.30;;;9.50;;
62123;SDS011;48110;47.532;19.078;2024-01-15T11:05:18;15.68;;;9.15;;
62123;SDS011;48110;47.532;19.078;2024-01-15T11:08:25;14.15;;;8.95;;
62123;SDS011;48110;47.532;19.078;2024-01-15T11:11:29;14.57;;;9.02;;
62123;SDS011;48110;47.532;19.078;2024-01-15T11:14:41;14.13;;;8.93;;
62123;SDS011;48110;47.532;19.078;2024-01-15T11:17:58;13.62;;;8.32;;
62123;SDS011;48110;47.532;19.078;2024-01-15T11:24:36;15.48;;;8.25;;
62123;SDS011;48110;47.532;19.078;2024-01-15T11:30:47;12.25;;;8.18;;
62123;SDS011;48110;47.532;19.078;2024-01-15T11:33:50;11.25;;;7.65;;
62123;SDS011;48110;47.532;19.078;2024-01-15T11:37:03;13.00;;;7.97;;
62123;SDS011;48110;47.532;19.078;2024-01-15T11:43:14;14.23;;;7.80;;
62123;SDS011;48110;47.532;19.078;2024-01-15T11:46:19;12.40;;;7.00;;
62123;SDS011;48110;47.532;19.078;2024-01-15T11:50:08;16.70;;;6.60;;
62123;SDS011;48110;47.532;19.078;2024-01-15T11:52:48;12.80;;;7.03;;
62123;SDS011;48110;47.532;19.078;2024-01-15T11:56:01;14.40;;;6.40;;
62123;SDS011;48110;47.532;19.078;2024-01-15T11:59:05;11.00;;;6.22;;
62123;SDS011;48110;47.532;19.078;2024-01-15T12:02:21;12.50;;;6.40;;
62123;SDS011;48110;47.532;19.078;2024-01-15T12:05:25;12.05;;;6.60;;
62123;SDS011;48110;47.532;19.078;2024-01-15T12:08:28;10.88;;;6.18;;
62123;SDS011;48110;47.532;19.078;2024-01-15T12:11:31;24.05;;;6.32;;
62123;SDS011;48110;47.532;19.078;2024-01-15T12:14:37;13.73;;;6.35;;
62123;SDS011;48110;47.532;19.078;2024-01-15T12:17:41;14.73;;;6.00;;
62123;SDS011;48110;47.532;19.078;2024-01-15T12:20:44;9.60;;;6.20;;
62123;SDS011;48110;47.532;19.078;2024-01-15T12:23:52;14.73;;;6.20;;
62123;SDS011;48110;47.532;19.078;2024-01-15T12:26:56;13.68;;;6.35;;
62123;SDS011;48110;47.532;19.078;2024-01-15T12:30:00;11.25;;;6.70;;
62123;SDS011;48110;47.532;19.078;2024-01-15T12:33:04;14.50;;;6.87;;
62123;SDS011;48110;47.532;19.078;2024-01-15T12:36:09;11.98;;;6.47;;
62123;SDS011;48110;47.532;19.078;2024-01-15T12:39:15;13.10;;;6.22;;
62123;SDS011;48110;47.532;19.078;2024-01-15T12:42:18;9.07;;;6.03;;
62123;SDS011;48110;47.532;19.078;2024-01-15T12:45:21;11.52;;;6.07;;
62123;SDS011;48110;47.532;19.078;2024-01-15T12:48:27;14.68;;;6.20;;
62123;SDS011;48110;47.532;19.078;2024-01-15T12:51:32;11.40;;;6.28;;
62123;SDS011;48110;47.532;19.078;2024-01-15T12:54:37;11.00;;;5.90;;
62123;SDS011;48110;47.532;19.078;2024-01-15T12:57:40;19.05;;;10.75;;
62123;SDS011;48110;47.532;19.078;2024-01-15T13:00:43;17.23;;;5.80;;
62123;SDS011;48110;47.532;19.078;2024-01-15T13:03:46;11.40;;;5.65;;
62123;SDS011;48110;47.532;19.078;2024-01-15T13:06:49;10.60;;;5.62;;
62123;SDS011;48110;47.532;19.078;2024-01-15T13:09:53;10.00;;;5.37;;
62123;SDS011;48110;47.532;19.078;2024-01-15T13:12:56;11.40;;;5.45;;
62123;SDS011;48110;47.532;19.078;2024-01-15T13:16:00;8.90;;;5.72;;
62123;SDS011;48110;47.532;19.078;2024-01-15T13:19:03;8.98;;;5.80;;
62123;SDS011;48110;47.532;19.078;2024-01-15T13:22:06;13.00;;;6.05;;
62123;SDS011;48110;47.532;19.078;2024-01-15T13:25:12;10.85;;;5.80;;
62123;SDS011;48110;47.532;19.078;2024-01-15T13:28:15;10.02;;;6.05;;
62123;SDS011;48110;47.532;19.078;2024-01-15T13:31:18;11.10;;;6.53;;
62123;SDS011;48110;47.532;19.078;2024-01-15T13:34:22;10.35;;;6.20;;
62123;SDS011;48110;47.532;19.078;2024-01-15T13:37:25;11.55;;;5.95;;
62123;SDS011;48110;47.532;19.078;2024-01-15T13:40:28;10.25;;;6.25;;
62123;SDS011;48110;47.532;19.078;2024-01-15T13:43:31;11.95;;;6.07;;
62123;SDS011;48110;47.532;19.078;2024-01-15T13:46:35;16.62;;;6.25;;
62123;SDS011;48110;47.532;19.078;2024-01-15T13:49:38;11.00;;;6.10;;
62123;SDS011;48110;47.532;19.078;2024-01-15T13:52:41;10.85;;;6.10;;
62123;SDS011;48110;47.532;19.078;2024-01-15T13:55:44;8.10;;;5.10;;
62123;SDS011;48110;47.532;19.078;2024-01-15T13:58:47;10.43;;;5.60;;
62123;SDS011;48110;47.532;19.078;2024-01-15T14:01:51;14.77;;;5.95;;
62123;SDS011;48110;47.532;19.078;2024-01-15T14:04:53;9.02;;;5.72;;
62123;SDS011;48110;47.532;19.078;2024-01-15T14:07:56;9.40;;;5.28;;
62123;SDS011;48110;47.532;19.078;2024-01-15T14:10:59;9.95;;;5.70;;
62123;SDS011;48110;47.532;19.078;2024-01-15T14:14:02;9.20;;;5.93;;
62123;SDS011;48110;47.532;19.078;2024-01-15T14:17:06;10.02;;;5.25;;
62123;SDS011;48110;47.532;19.078;2024-01-15T14:20:08;10.80;;;5.18;;
62123;SDS011;48110;47.532;19.078;2024-01-15T14:23:13;10.07;;;4.82;;
62123;SDS011;48110;47.532;19.078;2024-01-15T14:26:16;13.05;;;5.82;;
62123;SDS011;48110;47.532;19.078;2024-01-15T14:29:19;9.73;;;5.75;;
62123;SDS011;48110;47.532;19.078;2024-01-15T14:32:24;11.00;;;5.40;;
62123;SDS011;48110;47.532;19.078;2024-01-15T14:35:28;11.73;;;5.40;;
62123;SDS011;48110;47.532;19.078;2024-01-15T14:38:31;10.40;;;5.55;;
62123;SDS011;48110;47.532;19.078;2024-01-15T14:41:34;9.50;;;5.55;;
62123;SDS011;48110;47.532;19.078;2024-01-15T14:44:36;11.90;;;5.72;;
62123;SDS011;48110;47.532;19.078;2024-01-15T14:47:41;10.65;;;5.57;;
62123;SDS011;48110;47.532;19.078;2024-01-15T14:50:44;15.00;;;5.82;;
62123;SDS011;48110;47.532;19.078;2024-01-15T14:53:47;13.93;;;5.95;;
62123;SDS011;48110;47.532;19.078;2024-01-15T14:56:50;13.13;;;5.70;;
62123;SDS011;48110;47.532;19.078;2024-01-15T14:59:53;10.63;;;5.10;;
62123;SDS011;48110;47.532;19.078;2024-01-15T15:02:56;9.88;;;5.47;;
62123;SDS011;48110;47.532;19.078;2024-01-15T15:05:59;10.77;;;5.47;;
62123;SDS011;48110;47.532;19.078;2024-01-15T15:09:03;8.15;;;5.32;;
62123;SDS011;48110;47.532;19.078;2024-01-15T15:12:11;9.48;;;5.15;;
62123;SDS011;48110;47.532;19.078;2024-01-15T15:15:14;14.82;;;5.62;;
62123;SDS011;48110;47.532;19.078;2024-01-15T15:18:23;12.70;;;5.37;;
62123;SDS011;48110;47.532;19.078;2024-01-15T15:21:26;10.40;;;5.55;;
62123;SDS011;48110;47.532;19.078;2024-01-15T15:24:31;10.85;;;5.55;;
62123;SDS011;48110;47.532;19.078;2024-01-15T15:27:35;9.65;;;5.12;;
62123;SDS011;48110;47.532;19.078;2024-01-15T15:30:38;9.43;;;5.45;;
62123;SDS011;48110;47.532;19.078;2024-01-15T15:33:51;9.52;;;5.35;;
62123;SDS011;48110;47.532;19.078;2024-01-15T15:36:56;10.43;;;5.18;;
62123;SDS011;48110;47.532;19.078;2024-01-15T15:39:59;8.90;;;5.20;;
62123;SDS011;48110;47.532;19.078;2024-01-15T15:43:02;10.43;;;5.62;;
62123;SDS011;48110;47.532;19.078;2024-01-15T15:46:05;8.98;;;5.53;;
62123;SDS011;48110;47.532;19.078;2024-01-15T15:49:08;10.95;;;5.30;;
62123;SDS011;48110;47.532;19.078;2024-01-15T15:52:11;8.93;;;5.45;;
62123;SDS011;48110;47.532;19.078;2024-01-15T15:55:14;13.23;;;6.95;;
62123;SDS011;48110;47.532;19.078;2024-01-15T15:58:17;11.15;;;6.12;;
62123;SDS011;48110;47.532;19.078;2024-01-15T16:01:20;10.70;;;6.50;;
62123;SDS011;48110;47.532;19.078;2024-01-15T16:04:25;9.05;;;5.97;;
62123;SDS011;48110;47.532;19.078;2024-01-15T16:07:28;9.32;;;6.03;;
62123;SDS011;48110;47.532;19.078;2024-01-15T16:10:31;11.65;;;7.22;;
62123;SDS011;48110;47.532;19.078;2024-01-15T16:13:34;10.95;;;6.57;;
62123;SDS011;48110;47.532;19.078;2024-01-15T16:16:37;10.73;;;5.85;;
62123;SDS011;48110;47.532;19.078;2024-01-15T16:20:00;9.05;;;5.65;;
62123;SDS011;48110;47.532;19.078;2024-01-15T16:23:23;10.48;;;6.28;;
62123;SDS011;48110;47.532;19.078;2024-01-15T16:26:46;13.10;;;6.50;;
62123;SDS011;48110;47.532;19.078;2024-01-15T16:29:50;15.50;;;6.62;;
62123;SDS011;48110;47.532;19.078;2024-01-15T16:32:52;9.73;;;6.15;;
62123;SDS011;48110;47.532;19.078;2024-01-15T16:35:55;9.70;;;6.30;;
62123;SDS011;48110;47.532;19.078;2024-01-15T16:39:00;14.20;;;6.93;;
62123;SDS011;48110;47.532;19.078;2024-01-15T16:42:03;11.45;;;7.87;;
62123;SDS011;48110;47.532;19.078;2024-01-15T16:45:07;11.73;;;7.50;;
62123;SDS011;48110;47.532;19.078;2024-01-15T16:48:11;9.25;;;6.57;;
62123;SDS011;48110;47.532;19.078;2024-01-15T16:51:14;12.43;;;6.60;;
62123;SDS011;48110;47.532;19.078;2024-01-15T16:54:18;10.32;;;6.57;;
62123;SDS011;48110;47.532;19.078;2024-01-15T16:57:21;11.57;;;6.07;;
62123;SDS011;48110;47.532;19.078;2024-01-15T17:00:25;10.77;;;6.20;;
62123;SDS011;48110;47.532;19.078;2024-01-15T17:03:28;11.20;;;6.40;;
62123;SDS011;48110;47.532;19.078;2024-01-15T17:06:32;10.85;;;5.50;;
62123;SDS011;48110;47.532;19.078;2024-01-15T17:09:35;8.63;;;5.18;;
62123;SDS011;48110;47.532;19.078;2024-01-15T17:12:39;12.40;;;4.53;;
62123;SDS011;48110;47.532;19.078;2024-01-15T17:15:42;8.80;;;4.82;;
62123;SDS011;48110;47.532;19.078;2024-01-15T17:18:45;7.45;;;4.45;;
62123;SDS011;48110;47.532;19.078;2024-01-15T17:21:48;10.40;;;4.95;;
62123;SDS011;48110;47.532;19.078;2024-01-15T17:24:51;6.85;;;4.40;;
62123;SDS011;48110;47.532;19.078;2024-01-15T17:27:54;9.88;;;4.68;;
62123;SDS011;48110;47.532;19.078;2024-01-15T17:30:57;6.20;;;4.60;;
62123;SDS011;48110;47.532;19.078;2024-01-15T17:34:01;8.52;;;4.80;;
62123;SDS011;48110;47.532;19.078;2024-01-15T17:37:04;7.78;;;4.87;;
62123;SDS011;48110;47.532;19.078;2024-01-15T17:40:07;8.43;;;4.57;;
62123;SDS011;48110;47.532;19.078;2024-01-15T17:43:10;8.45;;;4.40;;
62123;SDS011;48110;47.532;19.078;2024-01-15T17:46:14;7.60;;;4.60;;
62123;SDS011;48110;47.532;19.078;2024-01-15T17:49:17;7.82;;;4.90;;
62123;SDS011;48110;47.532;19.078;2024-01-15T17:52:19;7.72;;;4.62;;
62123;SDS011;48110;47.532;19.078;2024-01-15T17:55:26;8.38;;;4.62;;
62123;SDS011;48110;47.532;19.078;2024-01-15T17:58:29;8.77;;;5.03;;